sensor_id;sensor_type;location;lat;lon;timestamp;temperature;humidity
20862;DHT22;10591;52.532;13.348;2023-11-21T00:01:56;7.50;91.75
20862;DHT22;10591;52.532;13.348;2023-11-21T00:04:27;7.46;91.52
20862;DHT22;10591;52.532;13.348;2023-11-21T00:06:58;7.32;91.14
20862;DHT22;10591;52.532;13.348;2023-11-21T00:09:29;7.20;91.09
20862;DHT22;10591;52.532;13.348;2023-11-21T00:12:00;7.05;90.98
20862;DHT22;10591;52.532;13.348;2023-11-21T00:14:31;7.07;90.90
20862;DHT22;10591;52.532;13.348;2023-11-21T00:17:04;6.86;90.57
20862;DHT22;10591;52.532;13.348;2023-11-21T00:19:35;6.86;91.07
20862;DHT22;10591;52.532;13.348;2023-11-21T00:22:06;6.86;91.15
20862;DHT22;10591;52.532;13.348;2023-11-21T00:24:37;6.80;91.05
20862;DHT22;10591;52.532;13.348;2023-11-21T00:27:08;6.71;90.99
20862;DHT22;10591;52.532;13.348;2023-11-21T00:29:39;6.74;91.03
20862;DHT22;10591;52.532;13.348;2023-11-21T00:32:09;6.65;90.97
20862;DHT22;10591;52.532;13.348;2023-11-21T00:34:44;6.60;91.04
20862;DHT22;10591;52.532;13.348;2023-11-21T00:37:15;6.62;90.94
20862;DHT22;10591;52.532;13.348;2023-11-21T00:39:46;6.56;90.90
20862;DHT22;10591;52.532;13.348;2023-11-21T00:42:16;6.46;90.60
20862;DHT22;10591;52.532;13.348;2023-11-21T00:44:47;6.40;90.77
20862;DHT22;10591;52.532;13.348;2023-11-21T00:47:18;6.37;90.51
20862;DHT22;10591;52.532;13.348;2023-11-21T00:49:52;6.42;90.09
20862;DHT22;10591;52.532;13.348;2023-11-21T00:52:24;6.35;89.86
20862;DHT22;10591;52.532;13.348;2023-11-21T00:54:56;6.33;89.85
20862;DHT22;10591;52.532;13.348;2023-11-21T00:57:29;6.42;90.00
20862;DHT22;10591;52.532;13.348;2023-11-21T01:00:01;6.48;90.06
20862;DHT22;10591;52.532;13.348;2023-11-21T01:02:33;6.36;89.64
20862;DHT22;10591;52.532;13.348;2023-11-21T01:05:06;6.43;89.53
20862;DHT22;10591;52.532;13.348;2023-11-21T01:07:37;6.28;90.21
20862;DHT22;10591;52.532;13.348;2023-11-21T01:10:10;6.44;90.23
20862;DHT22;10591;52.532;13.348;2023-11-21T01:12:42;6.40;90.34
20862;DHT22;10591;52.532;13.348;2023-11-21T01:15:12;6.38;90.22
20862;DHT22;10591;52.532;13.348;2023-11-21T01:17:43;6.48;90.37
20862;DHT22;10591;52.532;13.348;2023-11-21T01:20:15;6.56;90.13
20862;DHT22;10591;52.532;13.348;2023-11-21T01:22:47;6.44;90.07
20862;DHT22;10591;52.532;13.348;2023-11-21T01:25:19;6.52;89.34
20862;DHT22;10591;52.532;13.348;2023-11-21T01:27:50;6.41;89.07
20862;DHT22;10591;52.532;13.348;2023-11-21T01:30:21;6.35;89.12
20862;DHT22;10591;52.532;13.348;2023-11-21T01:32:53;6.34;89.25
20862;DHT22;10591;52.532;13.348;2023-11-21T01:35:24;6.33;89.11
20862;DHT22;10591;52.532;13.348;2023-11-21T01:37:57;6.18;89.18
20862;DHT22;10591;52.532;13.348;2023-11-21T01:40:28;6.12;89.41
20862;DHT22;10591;52.532;13.348;2023-11-21T01:43:01;6.14;89.02
20862;DHT22;10591;52.532;13.348;2023-11-21T01:45:35;6.02;89.38
20862;DHT22;10591;52.532;13.348;2023-11-21T01:48:06;5.98;89.55
20862;DHT22;10591;52.532;13.348;2023-11-21T01:50:40;6.05;89.50
20862;DHT22;10591;52.532;13.348;2023-11-21T01:53:13;6.08;89.31
20862;DHT22;10591;52.532;13.348;2023-11-21T01:55:45;6.00;89.16
20862;DHT22;10591;52.532;13.348;2023-11-21T01:58:16;6.09;89.23
20862;DHT22;10591;52.532;13.348;2023-11-21T02:00:49;6.14;88.65
20862;DHT22;10591;52.532;13.348;2023-11-21T02:03:20;6.07;89.00
20862;DHT22;10591;52.532;13.348;2023-11-21T02:05:52;6.09;88.81
20862;DHT22;10591;52.532;13.348;2023-11-21T02:08:23;6.04;88.90
20862;DHT22;10591;52.532;13.348;2023-11-21T02:10:53;6.06;88.89
20862;DHT22;10591;52.532;13.348;2023-11-21T02:13:24;5.92;89.49
20862;DHT22;10591;52.532;13.348;2023-11-21T02:15:55;5.96;89.58
20862;DHT22;10591;52.532;13.348;2023-11-21T02:18:26;6.00;89.38
20862;DHT22;10591;52.532;13.348;2023-11-21T02:20:58;6.04;89.87
20862;DHT22;10591;52.532;13.348;2023-11-21T02:23:30;5.95;89.71
20862;DHT22;10591;52.532;13.348;2023-11-21T02:26:01;5.98;89.50
20862;DHT22;10591;52.532;13.348;2023-11-21T02:28:34;6.02;89.66
20862;DHT22;10591;52.532;13.348;2023-11-21T02:31:07;5.90;89.14
20862;DHT22;10591;52.532;13.348;2023-11-21T02:33:38;5.88;89.76
20862;DHT22;10591;52.532;13.348;2023-11-21T02:36:13;5.94;89.99
20862;DHT22;10591;52.532;13.348;2023-11-21T02:38:45;5.99;89.98
20862;DHT22;10591;52.532;13.348;2023-11-21T02:41:18;5.94;90.01
20862;DHT22;10591;52.532;13.348;2023-11-21T02:43:49;5.94;89.99
20862;DHT22;10591;52.532;13.348;2023-11-21T02:46:20;5.94;89.64
20862;DHT22;10591;52.532;13.348;2023-11-21T02:48:52;6.02;89.90
20862;DHT22;10591;52.532;13.348;2023-11-21T02:51:24;5.93;89.36
20862;DHT22;10591;52.532;13.348;2023-11-21T02:53:55;5.98;89.02
20862;DHT22;10591;52.532;13.348;2023-11-21T02:56:27;5.70;88.95
20862;DHT22;10591;52.532;13.348;2023-11-21T02:59:00;5.84;88.68
20862;DHT22;10591;52.532;13.348;2023-11-21T03:01:32;5.85;88.33
20862;DHT22;10591;52.532;13.348;2023-11-21T03:04:03;5.73;88.74
20862;DHT22;10591;52.532;13.348;2023-11-21T03:06:34;5.85;88.47
20862;DHT22;10591;52.532;13.348;2023-11-21T03:09:04;5.82;88.72
20862;DHT22;10591;52.532;13.348;2023-11-21T03:11:38;5.69;88.69
20862;DHT22;10591;52.532;13.348;2023-11-21T03:14:09;5.59;88.79
20862;DHT22;10591;52.532;13.348;2023-11-21T03:16:40;5.68;88.86
20862;DHT22;10591;52.532;13.348;2023-11-21T03:19:11;5.73;89.13
20862;DHT22;10591;52.532;13.348;2023-11-21T03:21:43;5.69;89.21
20862;DHT22;10591;52.532;13.348;2023-11-21T03:24:15;5.83;89.33
20862;DHT22;10591;52.532;13.348;2023-11-21T03:26:47;5.82;89.25
20862;DHT22;10591;52.532;13.348;2023-11-21T03:29:18;5.74;88.84
20862;DHT22;10591;52.532;13.348;2023-11-21T03:31:48;5.89;88.36
20862;DHT22;10591;52.532;13.348;2023-11-21T03:34:27;5.68;88.11
20862;DHT22;10591;52.532;13.348;2023-11-21T03:36:58;5.70;87.98
20862;DHT22;10591;52.532;13.348;2023-11-21T03:39:30;5.48;87.89
20862;DHT22;10591;52.532;13.348;2023-11-21T03:42:00;5.67;87.71
20862;DHT22;10591;52.532;13.348;2023-11-21T03:44:31;5.56;87.38
20862;DHT22;10591;52.532;13.348;2023-11-21T03:47:02;5.52;87.63
20862;DHT22;10591;52.532;13.348;2023-11-21T03:49:33;5.44;87.57
20862;DHT22;10591;52.532;13.348;2023-11-21T03:52:04;5.48;87.80
20862;DHT22;10591;52.532;13.348;2023-11-21T03:54:35;5.49;87.32
20862;DHT22;10591;52.532;13.348;2023-11-21T03:57:06;5.42;87.56
20862;DHT22;10591;52.532;13.348;2023-11-21T03:59:42;5.51;87.30
20862;DHT22;10591;52.532;13.348;2023-11-21T04:02:13;5.54;87.24
20862;DHT22;10591;52.532;13.348;2023-11-21T04:04:44;5.37;87.73
20862;DHT22;10591;52.532;13.348;2023-11-21T04:07:15;5.51;87.24
20862;DHT22;10591;52.532;13.348;2023-11-21T04:09:46;5.50;87.05
20862;DHT22;10591;52.532;13.348;2023-11-21T04:12:18;5.60;86.81
20862;DHT22;10591;52.532;13.348;2023-11-21T04:14:52;5.42;87.03
20862;DHT22;10591;52.532;13.348;2023-11-21T04:17:24;5.53;86.92
20862;DHT22;10591;52.532;13.348;2023-11-21T04:19:54;5.54;86.71
20862;DHT22;10591;52.532;13.348;2023-11-21T04:22:25;5.49;86.69
20862;DHT22;10591;52.532;13.348;2023-11-21T04:24:57;5.38;86.91
20862;DHT22;10591;52.532;13.348;2023-11-21T04:27:28;5.38;86.60
20862;DHT22;10591;52.532;13.348;2023-11-21T04:30:01;5.50;86.11
20862;DHT22;10591;52.532;13.348;2023-11-21T04:32:34;5.44;86.64
20862;DHT22;10591;52.532;13.348;2023-11-21T04:35:05;5.55;86.57
20862;DHT22;10591;52.532;13.348;2023-11-21T04:37:37;5.55;86.33
20862;DHT22;10591;52.532;13.348;2023-11-21T04:40:09;5.41;86.36
20862;DHT22;10591;52.532;13.348;2023-11-21T04:42:42;5.52;85.98
20862;DHT22;10591;52.532;13.348;2023-11-21T04:45:12;5.52;86.12
20862;DHT22;10591;52.532;13.348;2023-11-21T04:47:45;5.38;86.31
20862;DHT22;10591;52.532;13.348;2023-11-21T04:50:15;5.41;86.50
20862;DHT22;10591;52.532;13.348;2023-11-21T04:52:46;5.48;86.02
20862;DHT22;10591;52.532;13.348;2023-11-21T04:55:17;5.42;85.73
20862;DHT22;10591;52.532;13.348;2023-11-21T04:57:51;5.50;85.30
20862;DHT22;10591;52.532;13.348;2023-11-21T05:00:21;5.48;85.43
20862;DHT22;10591;52.532;13.348;2023-11-21T05:02:52;5.44;85.69
20862;DHT22;10591;52.532;13.348;2023-11-21T05:05:23;5.49;85.39
20862;DHT22;10591;52.532;13.348;2023-11-21T05:07:53;5.50;84.66
20862;DHT22;10591;52.532;13.348;2023-11-21T05:10:25;5.38;85.23
20862;DHT22;10591;52.532;13.348;2023-11-21T05:12:57;5.28;84.88
20862;DHT22;10591;52.532;13.348;2023-11-21T05:15:29;5.30;84.84
20862;DHT22;10591;52.532;13.348;2023-11-21T05:18:00;5.20;85.03
20862;DHT22;10591;52.532;13.348;2023-11-21T05:20:33;5.20;85.12
20862;DHT22;10591;52.532;13.348;2023-11-21T05:23:03;5.18;85.18
20862;DHT22;10591;52.532;13.348;2023-11-21T05:25:34;5.28;85.11
20862;DHT22;10591;52.532;13.348;2023-11-21T05:28:08;5.08;85.56
20862;DHT22;10591;52.532;13.348;2023-11-21T05:30:39;5.18;85.36
20862;DHT22;10591;52.532;13.348;2023-11-21T05:33:11;5.26;85.11
20862;DHT22;10591;52.532;13.348;2023-11-21T05:35:42;5.17;84.95
20862;DHT22;10591;52.532;13.348;2023-11-21T05:38:15;5.24;84.83
20862;DHT22;10591;52.532;13.348;2023-11-21T05:40:45;5.24;84.65
20862;DHT22;10591;52.532;13.348;2023-11-21T05:43:18;5.16;84.61
20862;DHT22;10591;52.532;13.348;2023-11-21T05:45:48;5.31;84.41
20862;DHT22;10591;52.532;13.348;2023-11-21T05:48:20;5.16;84.63
20862;DHT22;10591;52.532;13.348;2023-11-21T05:50:51;5.14;83.96
20862;DHT22;10591;52.532;13.348;2023-11-21T05:53:21;5.21;83.95
20862;DHT22;10591;52.532;13.348;2023-11-21T05:55:52;5.14;84.40
20862;DHT22;10591;52.532;13.348;2023-11-21T05:58:24;5.10;84.02
20862;DHT22;10591;52.532;13.348;2023-11-21T06:01:05;5.08;83.93
20862;DHT22;10591;52.532;13.348;2023-11-21T06:03:30;4.97;83.97
20862;DHT22;10591;52.532;13.348;2023-11-21T06:06:01;4.94;84.03
20862;DHT22;10591;52.532;13.348;2023-11-21T06:08:35;4.98;84.13
20862;DHT22;10591;52.532;13.348;2023-11-21T06:11:06;4.96;84.42
20862;DHT22;10591;52.532;13.348;2023-11-21T06:13:45;4.96;83.92
20862;DHT22;10591;52.532;13.348;2023-11-21T06:16:12;5.00;83.68
20862;DHT22;10591;52.532;13.348;2023-11-21T06:18:45;5.02;83.50
20862;DHT22;10591;52.532;13.348;2023-11-21T06:21:16;4.99;83.35
20862;DHT22;10591;52.532;13.348;2023-11-21T06:23:48;5.05;83.34
20862;DHT22;10591;52.532;13.348;2023-11-21T06:26:20;5.06;83.04
20862;DHT22;10591;52.532;13.348;2023-11-21T06:28:50;4.95;83.66
20862;DHT22;10591;52.532;13.348;2023-11-21T06:31:23;4.94;83.29
20862;DHT22;10591;52.532;13.348;2023-11-21T06:33:54;5.00;83.63
20862;DHT22;10591;52.532;13.348;2023-11-21T06:36:28;4.98;82.61
20862;DHT22;10591;52.532;13.348;2023-11-21T06:38:59;4.92;82.55
20862;DHT22;10591;52.532;13.348;2023-11-21T06:41:30;4.94;82.67
20862;DHT22;10591;52.532;13.348;2023-11-21T06:44:03;4.88;82.26
20862;DHT22;10591;52.532;13.348;2023-11-21T06:46:35;4.91;82.73
20862;DHT22;10591;52.532;13.348;2023-11-21T06:49:07;4.88;82.42
20862;DHT22;10591;52.532;13.348;2023-11-21T06:51:37;4.86;82.39
20862;DHT22;10591;52.532;13.348;2023-11-21T06:54:08;4.87;83.05
20862;DHT22;10591;52.532;13.348;2023-11-21T06:56:40;5.02;83.03
20862;DHT22;10591;52.532;13.348;2023-11-21T06:59:13;4.94;82.39
20862;DHT22;10591;52.532;13.348;2023-11-21T07:01:43;5.02;82.92
20862;DHT22;10591;52.532;13.348;2023-11-21T07:04:14;4.94;82.52
20862;DHT22;10591;52.532;13.348;2023-11-21T07:06:45;4.89;82.31
20862;DHT22;10591;52.532;13.348;2023-11-21T07:09:17;4.92;82.29
20862;DHT22;10591;52.532;13.348;2023-11-21T07:11:53;4.94;81.94
20862;DHT22;10591;52.532;13.348;2023-11-21T07:14:26;4.85;82.74
20862;DHT22;10591;52.532;13.348;2023-11-21T07:16:56;4.90;82.87
20862;DHT22;10591;52.532;13.348;2023-11-21T07:19:27;4.88;82.84
20862;DHT22;10591;52.532;13.348;2023-11-21T07:21:58;4.95;82.58
20862;DHT22;10591;52.532;13.348;2023-11-21T07:24:34;4.98;82.19
20862;DHT22;10591;52.532;13.348;2023-11-21T07:27:01;5.00;82.05
20862;DHT22;10591;52.532;13.348;2023-11-21T07:29:35;5.02;82.05
20862;DHT22;10591;52.532;13.348;2023-11-21T07:32:05;4.96;81.92
20862;DHT22;10591;52.532;13.348;2023-11-21T07:34:39;5.02;82.08
20862;DHT22;10591;52.532;13.348;2023-11-21T07:37:09;4.96;81.71
20862;DHT22;10591;52.532;13.348;2023-11-21T07:39:40;4.86;82.20
20862;DHT22;10591;52.532;13.348;2023-11-21T07:42:12;4.89;82.26
20862;DHT22;10591;52.532;13.348;2023-11-21T07:44:43;4.93;81.66
20862;DHT22;10591;52.532;13.348;2023-11-21T07:47:15;4.84;82.18
20862;DHT22;10591;52.532;13.348;2023-11-21T07:49:46;4.94;82.08
20862;DHT22;10591;52.532;13.348;2023-11-21T07:52:18;5.02;82.05
20862;DHT22;10591;52.532;13.348;2023-11-21T07:54:50;4.95;81.83
20862;DHT22;10591;52.532;13.348;2023-11-21T07:57:21;5.12;83.22
20862;DHT22;10591;52.532;13.348;2023-11-21T07:59:52;5.34;82.76
20862;DHT22;10591;52.532;13.348;2023-11-21T08:02:24;5.13;81.37
20862;DHT22;10591;52.532;13.348;2023-11-21T08:04:55;5.16;81.90
20862;DHT22;10591;52.532;13.348;2023-11-21T08:07:26;5.19;81.96
20862;DHT22;10591;52.532;13.348;2023-11-21T08:09:57;5.08;81.96
20862;DHT22;10591;52.532;13.348;2023-11-21T08:12:28;5.09;81.41
20862;DHT22;10591;52.532;13.348;2023-11-21T08:14:59;5.01;82.12
20862;DHT22;10591;52.532;13.348;2023-11-21T08:17:31;5.06;82.06
20862;DHT22;10591;52.532;13.348;2023-11-21T08:20:03;5.01;82.57
20862;DHT22;10591;52.532;13.348;2023-11-21T08:22:35;5.06;82.20
20862;DHT22;10591;52.532;13.348;2023-11-21T08:25:06;4.85;82.58
20862;DHT22;10591;52.532;13.348;2023-11-21T08:27:37;4.99;82.09
20862;DHT22;10591;52.532;13.348;2023-11-21T08:30:11;4.87;82.02
20862;DHT22;10591;52.532;13.348;2023-11-21T08:32:43;4.92;82.24
20862;DHT22;10591;52.532;13.348;2023-11-21T08:35:17;4.90;82.30
20862;DHT22;10591;52.532;13.348;2023-11-21T08:37:47;4.93;82.17
20862;DHT22;10591;52.532;13.348;2023-11-21T08:40:18;4.89;82.49
20862;DHT22;10591;52.532;13.348;2023-11-21T08:42:49;4.86;82.90
20862;DHT22;10591;52.532;13.348;2023-11-21T08:45:22;4.92;82.82
20862;DHT22;10591;52.532;13.348;2023-11-21T08:47:53;4.90;82.73
20862;DHT22;10591;52.532;13.348;2023-11-21T08:50:23;4.94;82.74
20862;DHT22;10591;52.532;13.348;2023-11-21T08:52:54;5.24;82.39
20862;DHT22;10591;52.532;13.348;2023-11-21T08:55:25;5.21;81.93
20862;DHT22;10591;52.532;13.348;2023-11-21T08:57:55;5.08;82.37
20862;DHT22;10591;52.532;13.348;2023-11-21T09:00:29;5.18;82.09
20862;DHT22;10591;52.532;13.348;2023-11-21T09:03:01;5.03;82.43
20862;DHT22;10591;52.532;13.348;2023-11-21T09:05:37;4.97;82.61
20862;DHT22;10591;52.532;13.348;2023-11-21T09:08:06;4.88;82.12
20862;DHT22;10591;52.532;13.348;2023-11-21T09:10:37;4.90;82.17
20862;DHT22;10591;52.532;13.348;2023-11-21T09:13:09;4.98;82.30
20862;DHT22;10591;52.532;13.348;2023-11-21T09:15:40;4.74;82.99
20862;DHT22;10591;52.532;13.348;2023-11-21T09:18:10;4.87;83.48
20862;DHT22;10591;52.532;13.348;2023-11-21T09:20:42;4.84;83.91
20862;DHT22;10591;52.532;13.348;2023-11-21T09:23:16;4.94;83.48
20862;DHT22;10591;52.532;13.348;2023-11-21T09:25:46;5.07;83.51
20862;DHT22;10591;52.532;13.348;2023-11-21T09:28:19;5.06;81.43
20862;DHT22;10591;52.532;13.348;2023-11-21T09:30:49;5.20;81.65
20862;DHT22;10591;52.532;13.348;2023-11-21T09:33:20;5.10;81.32
20862;DHT22;10591;52.532;13.348;2023-11-21T09:35:51;4.92;81.42
20862;DHT22;10591;52.532;13.348;2023-11-21T09:38:24;5.00;81.96
20862;DHT22;10591;52.532;13.348;2023-11-21T09:40:55;5.10;80.90
20862;DHT22;10591;52.532;13.348;2023-11-21T09:43:28;4.96;80.81
20862;DHT22;10591;52.532;13.348;2023-11-21T09:46:02;4.76;81.78
20862;DHT22;10591;52.532;13.348;2023-11-21T09:48:35;4.88;81.55
20862;DHT22;10591;52.532;13.348;2023-11-21T09:51:07;4.96;81.69
20862;DHT22;10591;52.532;13.348;2023-11-21T09:53:41;4.93;81.77
20862;DHT22;10591;52.532;13.348;2023-11-21T09:56:14;4.90;82.03
20862;DHT22;10591;52.532;13.348;2023-11-21T09:58:49;4.93;82.02
20862;DHT22;10591;52.532;13.348;2023-11-21T10:01:21;4.90;82.21
20862;DHT22;10591;52.532;13.348;2023-11-21T10:03:53;4.90;82.49
20862;DHT22;10591;52.532;13.348;2023-11-21T10:06:26;4.73;82.45
20862;DHT22;10591;52.532;13.348;2023-11-21T10:08:59;4.74;82.94
20862;DHT22;10591;52.532;13.348;2023-11-21T10:11:33;4.80;83.15
20862;DHT22;10591;52.532;13.348;2023-11-21T10:14:04;4.86;83.13
20862;DHT22;10591;52.532;13.348;2023-11-21T10:16:36;4.55;83.93
20862;DHT22;10591;52.532;13.348;2023-11-21T10:19:10;4.66;83.69
20862;DHT22;10591;52.532;13.348;2023-11-21T10:21:43;4.60;84.17
20862;DHT22;10591;52.532;13.348;2023-11-21T10:24:14;4.63;84.09
20862;DHT22;10591;52.532;13.348;2023-11-21T10:26:46;4.90;84.20
20862;DHT22;10591;52.532;13.348;2023-11-21T10:29:21;4.43;84.59
20862;DHT22;10591;52.532;13.348;2023-11-21T10:31:52;4.38;84.67
20862;DHT22;10591;52.532;13.348;2023-11-21T10:34:26;4.47;84.53
20862;DHT22;10591;52.532;13.348;2023-11-21T10:36:57;4.48;84.70
20862;DHT22;10591;52.532;13.348;2023-11-21T10:39:28;4.52;84.79
20862;DHT22;10591;52.532;13.348;2023-11-21T10:42:00;4.28;85.10
20862;DHT22;10591;52.532;13.348;2023-11-21T10:44:32;4.48;85.24
20862;DHT22;10591;52.532;13.348;2023-11-21T10:47:03;4.46;85.14
20862;DHT22;10591;52.532;13.348;2023-11-21T10:49:38;4.46;85.03
20862;DHT22;10591;52.532;13.348;2023-11-21T10:52:11;4.48;85.26
20862;DHT22;10591;52.532;13.348;2023-11-21T10:54:48;4.58;84.88
20862;DHT22;10591;52.532;13.348;2023-11-21T10:57:21;4.60;84.94
20862;DHT22;10591;52.532;13.348;2023-11-21T10:59:53;4.63;85.41
20862;DHT22;10591;52.532;13.348;2023-11-21T11:02:25;4.57;85.42
20862;DHT22;10591;52.532;13.348;2023-11-21T11:04:59;4.52;85.60
20862;DHT22;10591;52.532;13.348;2023-11-21T11:07:31;4.28;86.31
20862;DHT22;10591;52.532;13.348;2023-11-21T11:10:04;4.45;86.17
20862;DHT22;10591;52.532;13.348;2023-11-21T11:12:37;4.18;85.81
20862;DHT22;10591;52.532;13.348;2023-11-21T11:15:10;4.18;85.61
20862;DHT22;10591;52.532;13.348;2023-11-21T11:17:42;4.06;86.12
20862;DHT22;10591;52.532;13.348;2023-11-21T11:20:16;4.08;85.90
20862;DHT22;10591;52.532;13.348;2023-11-21T11:26:04;3.99;85.88
20862;DHT22;10591;52.532;13.348;2023-11-21T11:32:08;4.00;86.64
20862;DHT22;10591;52.532;13.348;2023-11-21T11:35:01;3.84;87.00
20862;DHT22;10591;52.532;13.348;2023-11-21T11:37:11;4.07;86.65
20862;DHT22;10591;52.532;13.348;2023-11-21T11:39:43;3.86;86.87
20862;DHT22;10591;52.532;13.348;2023-11-21T11:42:16;3.98;86.88
20862;DHT22;10591;52.532;13.348;2023-11-21T11:44:50;4.10;86.70
20862;DHT22;10591;52.532;13.348;2023-11-21T11:47:27;3.98;86.29
20862;DHT22;10591;52.532;13.348;2023-11-21T11:50:02;4.07;86.10
20862;DHT22;10591;52.532;13.348;2023-11-21T11:52:52;3.98;86.08
20862;DHT22;10591;52.532;13.348;2023-11-21T11:55:25;4.12;86.22
20862;DHT22;10591;52.532;13.348;2023-11-21T11:58:00;4.26;85.38
20862;DHT22;10591;52.532;13.348;2023-11-21T12:00:37;4.12;85.80
20862;DHT22;10591;52.532;13.348;2023-11-21T12:03:09;4.26;85.32
20862;DHT22;10591;52.532;13.348;2023-11-21T12:05:42;4.15;85.20
20862;DHT22;10591;52.532;13.348;2023-11-21T12:08:16;4.28;85.23
20862;DHT22;10591;52.532;13.348;2023-11-21T12:10:47;4.36;84.89
20862;DHT22;10591;52.532;13.348;2023-11-21T12:13:18;4.29;85.23
20862;DHT22;10591;52.532;13.348;2023-11-21T12:15:49;4.16;84.98
20862;DHT22;10591;52.532;13.348;2023-11-21T12:18:20;4.18;85.21
20862;DHT22;10591;52.532;13.348;2023-11-21T12:20:53;4.18;85.52
20862;DHT22;10591;52.532;13.348;2023-11-21T12:23:24;4.17;85.25
20862;DHT22;10591;52.532;13.348;2023-11-21T12:25:58;4.10;85.23
20862;DHT22;10591;52.532;13.348;2023-11-21T12:28:31;4.16;85.96
20862;DHT22;10591;52.532;13.348;2023-11-21T12:31:03;4.10;85.66
20862;DHT22;10591;52.532;13.348;2023-11-21T12:33:38;4.05;84.99
20862;DHT22;10591;52.532;13.348;2023-11-21T12:36:11;3.90;85.32
20862;DHT22;10591;52.532;13.348;2023-11-21T12:38:43;3.94;86.00
20862;DHT22;10591;52.532;13.348;2023-11-21T12:41:16;3.90;86.49
20862;DHT22;10591;52.532;13.348;2023-11-21T12:43:47;3.94;85.64
20862;DHT22;10591;52.532;13.348;2023-11-21T12:46:20;4.09;86.03
20862;DHT22;10591;52.532;13.348;2023-11-21T12:48:51;4.24;86.26
20862;DHT22;10591;52.532;13.348;2023-11-21T12:51:24;4.30;85.27
20862;DHT22;10591;52.532;13.348;2023-11-21T12:53:56;4.41;84.61
20862;DHT22;10591;52.532;13.348;2023-11-21T12:56:29;4.52;83.97
20862;DHT22;10591;52.532;13.348;2023-11-21T12:59:01;4.42;84.13
20862;DHT22;10591;52.532;13.348;2023-11-21T13:01:35;4.48;84.63
20862;DHT22;10591;52.532;13.348;2023-11-21T13:04:08;4.20;84.54
20862;DHT22;10591;52.532;13.348;2023-11-21T13:06:40;4.32;84.56
20862;DHT22;10591;52.532;13.348;2023-11-21T13:09:12;4.21;84.81
20862;DHT22;10591;52.532;13.348;2023-11-21T13:11:46;3.95;85.31
20862;DHT22;10591;52.532;13.348;2023-11-21T13:14:18;4.08;85.05
20862;DHT22;10591;52.532;13.348;2023-11-21T13:16:53;4.31;84.88
20862;DHT22;10591;52.532;13.348;2023-11-21T13:19:26;4.20;84.86
20862;DHT22;10591;52.532;13.348;2023-11-21T13:21:59;3.87;85.35
20862;DHT22;10591;52.532;13.348;2023-11-21T13:24:31;3.87;85.62
20862;DHT22;10591;52.532;13.348;2023-11-21T13:27:04;3.88;85.36
20862;DHT22;10591;52.532;13.348;2023-11-21T13:29:34;3.86;85.93
20862;DHT22;10591;52.532;13.348;2023-11-21T13:32:05;3.74;85.62
20862;DHT22;10591;52.532;13.348;2023-11-21T13:34:39;3.84;85.46
20862;DHT22;10591;52.532;13.348;2023-11-21T13:37:12;3.72;85.70
20862;DHT22;10591;52.532;13.348;2023-11-21T13:39:42;3.69;85.58
20862;DHT22;10591;52.532;13.348;2023-11-21T13:42:17;3.78;85.47
20862;DHT22;10591;52.532;13.348;2023-11-21T13:44:48;3.74;85.35
20862;DHT22;10591;52.532;13.348;2023-11-21T13:47:21;3.68;85.02
20862;DHT22;10591;52.532;13.348;2023-11-21T13:49:53;3.63;84.62
20862;DHT22;10591;52.532;13.348;2023-11-21T13:52:27;3.80;85.05
20862;DHT22;10591;52.532;13.348;2023-11-21T13:55:01;3.84;84.85
20862;DHT22;10591;52.532;13.348;2023-11-21T13:57:35;3.80;84.21
20862;DHT22;10591;52.532;13.348;2023-11-21T14:00:08;3.62;84.42
20862;DHT22;10591;52.532;13.348;2023-11-21T14:02:42;3.59;84.52
20862;DHT22;10591;52.532;13.348;2023-11-21T14:05:15;3.55;84.83
20862;DHT22;10591;52.532;13.348;2023-11-21T14:07:50;3.47;85.22
20862;DHT22;10591;52.532;13.348;2023-11-21T14:10:22;3.43;85.16
20862;DHT22;10591;52.532;13.348;2023-11-21T14:12:56;3.36;85.23
20862;DHT22;10591;52.532;13.348;2023-11-21T14:15:30;3.31;85.22
20862;DHT22;10591;52.532;13.348;2023-11-21T14:18:02;3.28;85.01
20862;DHT22;10591;52.532;13.348;2023-11-21T14:20:39;3.32;85.17
20862;DHT22;10591;52.532;13.348;2023-11-21T14:23:11;3.35;84.60
20862;DHT22;10591;52.532;13.348;2023-11-21T14:25:44;3.36;84.53
20862;DHT22;10591;52.532;13.348;2023-11-21T14:28:16;3.18;84.47
20862;DHT22;10591;52.532;13.348;2023-11-21T14:30:47;3.08;84.29
20862;DHT22;10591;52.532;13.348;2023-11-21T14:33:18;3.15;84.37
20862;DHT22;10591;52.532;13.348;2023-11-21T14:35:48;3.22;84.23
20862;DHT22;10591;52.532;13.348;2023-11-21T14:38:21;3.18;84.10
20862;DHT22;10591;52.532;13.348;2023-11-21T14:40:53;3.13;83.87
20862;DHT22;10591;52.532;13.348;2023-11-21T14:43:24;2.97;84.04
20862;DHT22;10591;52.532;13.348;2023-11-21T14:45:56;3.00;83.98
20862;DHT22;10591;52.532;13.348;2023-11-21T14:48:29;2.92;84.32
20862;DHT22;10591;52.532;13.348;2023-11-21T14:51:14;2.95;83.76
20862;DHT22;10591;52.532;13.348;2023-11-21T14:53:49;2.98;83.83
20862;DHT22;10591;52.532;13.348;2023-11-21T14:56:27;2.90;83.99
20862;DHT22;10591;52.532;13.348;2023-11-21T14:59:03;2.97;83.42
20862;DHT22;10591;52.532;13.348;2023-11-21T15:01:38;2.87;83.58
20862;DHT22;10591;52.532;13.348;2023-11-21T15:04:28;2.73;83.45
20862;DHT22;10591;52.532;13.348;2023-11-21T15:07:07;2.82;83.36
20862;DHT22;10591;52.532;13.348;2023-11-21T15:09:38;2.84;83.46
20862;DHT22;10591;52.532;13.348;2023-11-21T15:12:12;2.84;82.38
20862;DHT22;10591;52.532;13.348;2023-11-21T15:14:47;2.94;82.69
20862;DHT22;10591;52.532;13.348;2023-11-21T15:17:24;2.74;82.24
20862;DHT22;10591;52.532;13.348;2023-11-21T15:19:59;2.72;82.40
20862;DHT22;10591;52.532;13.348;2023-11-21T15:22:32;2.76;82.36
20862;DHT22;10591;52.532;13.348;2023-11-21T15:25:03;2.76;82.13
20862;DHT22;10591;52.532;13.348;2023-11-21T15:27:35;2.80;82.23
20862;DHT22;10591;52.532;13.348;2023-11-21T15:30:07;2.65;82.34
20862;DHT22;10591;52.532;13.348;2023-11-21T15:32:41;2.90;82.37
20862;DHT22;10591;52.532;13.348;2023-11-21T15:35:12;2.78;82.41
20862;DHT22;10591;52.532;13.348;2023-11-21T15:37:44;2.84;82.36
20862;DHT22;10591;52.532;13.348;2023-11-21T15:40:15;2.91;82.03
20862;DHT22;10591;52.532;13.348;2023-11-21T15:42:48;2.74;82.11
20862;DHT22;10591;52.532;13.348;2023-11-21T15:45:19;2.70;82.63
20862;DHT22;10591;52.532;13.348;2023-11-21T15:47:53;2.82;82.24
20862;DHT22;10591;52.532;13.348;2023-11-21T15:50:27;2.78;82.29
20862;DHT22;10591;52.532;13.348;2023-11-21T15:53:01;2.78;82.53
20862;DHT22;10591;52.532;13.348;2023-11-21T15:55:34;2.83;82.29
20862;DHT22;10591;52.532;13.348;2023-11-21T15:58:08;2.85;82.54
20862;DHT22;10591;52.532;13.348;2023-11-21T16:00:38;2.84;82.70
20862;DHT22;10591;52.532;13.348;2023-11-21T16:03:12;2.76;82.32
20862;DHT22;10591;52.532;13.348;2023-11-21T16:05:43;2.84;81.82
20862;DHT22;10591;52.532;13.348;2023-11-21T16:08:18;2.78;82.46